Time;durP1;ratioP1;P1;durP2;ratioP2;P2;SDS_P1;SDS_P2;PMS_P1;PMS_P2;Temp;Humidity;BMP_temperature;BMP_pressure;BME280_temperature;BME280_humidity;BME280_pressure;Samples;Min_cycle;Max_cycle;Signal;HPM_P1;HPM_P2
2023/12/15 00:01:52;;;;;;;29.90;14.88;;;;;;;;;;4871859;29;20477;-71
2023/12/15 00:04:18;;;;;;;31.58;15.05;;;;;;;;;;4888828;29;20056;-71
2023/12/15 00:06:44;;;;;;;25.35;15.25;;;;;;;;;;4867572;29;20143;-71
2023/12/15 00:09:13;;;;;;;33.17;15.52;;;;;;;;;;4863511;29;20147;-70
2023/12/15 00:11:39;;;;;;;31.30;14.52;;;;;;;;;;4866756;29;20455;-71
2023/12/15 00:14:05;;;;;;;29.83;14.65;;;;;;;;;;4864084;29;20490;-71
2023/12/15 00:16:34;;;;;;;31.95;14.57;;;;;;;;;;4885712;29;20048;-71
2023/12/15 00:19:00;;;;;;;33.00;14.18;;;;;;;;;;4867920;29;20061;-71
2023/12/15 00:21:26;;;;;;;27.83;14.48;;;;;;;;;;4866913;29;20067;-71
2023/12/15 00:23:55;;;;;;;27.15;14.93;;;;;;;;;;4869874;29;20052;-71
2023/12/15 00:26:21;;;;;;;32.83;15.27;;;;;;;;;;4871285;29;20494;-71
2023/12/15 00:28:47;;;;;;;32.58;14.65;;;;;;;;;;4867191;29;20059;-71
2023/12/15 00:31:13;;;;;;;29.15;14.13;;;;;;;;;;4865575;29;20049;-71
2023/12/15 00:33:39;;;;;;;33.05;14.20;;;;;;;;;;4893479;29;20529;-70
2023/12/15 00:36:05;;;;;;;25.45;13.75;;;;;;;;;;4874162;29;20091;-71
2023/12/15 00:38:34;;;;;;;26.80;13.80;;;;;;;;;;4865510;29;20067;-70
2023/12/15 00:41:00;;;;;;;36.33;14.57;;;;;;;;;;4865217;29;20061;-71
2023/12/15 00:43:26;;;;;;;31.55;13.90;;;;;;;;;;4885439;29;20178;-71
2023/12/15 00:45:52;;;;;;;28.38;13.23;;;;;;;;;;4867617;29;20396;-71
2023/12/15 00:48:18;;;;;;;26.85;13.30;;;;;;;;;;4870623;29;20052;-70
2023/12/15 00:50:44;;;;;;;26.90;14.15;;;;;;;;;;4873886;29;20053;-71
2023/12/15 00:53:10;;;;;;;31.00;14.80;;;;;;;;;;4868083;29;20060;-71
2023/12/15 00:55:42;;;;;;;27.98;13.88;;;;;;;;;;4865587;29;20053;-70
2023/12/15 00:58:08;;;;;;;35.53;13.77;;;;;;;;;;4863499;29;20064;-71
2023/12/15 01:00:34;;;;;;;25.20;11.75;;;;;;;;;;4879913;29;20036;-71
2023/12/15 01:03:03;;;;;;;27.95;11.25;;;;;;;;;;4864580;29;20060;-71
2023/12/15 01:05:29;;;;;;;22.83;10.95;;;;;;;;;;4885933;29;20055;-71
2023/12/15 01:07:55;;;;;;;25.23;9.93;;;;;;;;;;4866177;29;20049;-71
2023/12/15 01:10:24;;;;;;;31.08;11.30;;;;;;;;;;4870056;29;20052;-70
2023/12/15 01:12:50;;;;;;;25.40;11.27;;;;;;;;;;4886395;29;20061;-71
2023/12/15 01:15:16;;;;;;;26.65;11.02;;;;;;;;;;4875468;29;20139;-70
2023/12/15 01:17:42;;;;;;;26.40;10.38;;;;;;;;;;4872759;29;20441;-70
2023/12/15 01:20:10;;;;;;;32.03;11.30;;;;;;;;;;4869203;29;20190;-70
2023/12/15 01:22:36;;;;;;;26.92;11.82;;;;;;;;;;4872091;29;20090;-70
2023/12/15 01:25:02;;;;;;;29.30;11.93;;;;;;;;;;4872568;29;20045;-71
2023/12/15 01:27:28;;;;;;;35.55;12.07;;;;;;;;;;4870231;29;20506;-70
2023/12/15 01:29:54;;;;;;;30.60;11.25;;;;;;;;;;4870344;29;20044;-71
2023/12/15 01:32:23;;;;;;;25.80;10.68;;;;;;;;;;4873322;29;20095;-70
2023/12/15 01:34:49;;;;;;;28.27;10.90;;;;;;;;;;4872247;29;20079;-71
2023/12/15 01:37:15;;;;;;;32.22;10.55;;;;;;;;;;4864607;29;20064;-70
2023/12/15 01:39:41;;;;;;;26.35;10.07;;;;;;;;;;4888584;29;20045;-71
2023/12/15 01:42:07;;;;;;;32.58;10.57;;;;;;;;;;4869580;29;20592;-70
2023/12/15 01:44:33;;;;;;;25.05;10.48;;;;;;;;;;4867745;29;20048;-71
2023/12/15 01:47:02;;;;;;;30.42;11.32;;;;;;;;;;4870393;29;20049;-70
2023/12/15 01:49:32;;;;;;;22.52;10.05;;;;;;;;;;4886499;29;20521;-71
2023/12/15 01:51:58;;;;;;;38.15;10.85;;;;;;;;;;4887196;29;20489;-71
2023/12/15 01:54:24;;;;;;;27.17;10.13;;;;;;;;;;4885098;29;20044;-71
2023/12/15 01:56:50;;;;;;;35.65;10.80;;;;;;;;;;4888403;29;20055;-71
2023/12/15 01:59:18;;;;;;;31.38;10.15;;;;;;;;;;4865489;29;20683;-71
2023/12/15 02:01:45;;;;;;;26.88;9.38;;;;;;;;;;4869018;29;20045;-70
2023/12/15 02:04:14;;;;;;;30.75;9.23;;;;;;;;;;4874006;29;20398;-71
2023/12/15 02:06:40;;;;;;;32.25;8.40;;;;;;;;;;4868555;29;20521;-71
2023/12/15 02:09:06;;;;;;;27.48;9.18;;;;;;;;;;4867184;29;20513;-71
2023/12/15 02:11:32;;;;;;;27.65;7.80;;;;;;;;;;4885196;29;20434;-71
2023/12/15 02:14:01;;;;;;;23.30;7.07;;;;;;;;;;4888235;29;20497;-71
2023/12/15 02:16:27;;;;;;;22.17;7.82;;;;;;;;;;4872132;29;20056;-71
2023/12/15 02:18:53;;;;;;;27.80;7.38;;;;;;;;;;4885005;29;20052;-71
2023/12/15 02:21:21;;;;;;;33.28;8.10;;;;;;;;;;4870682;29;20083;-70
2023/12/15 02:23:47;;;;;;;25.05;7.32;;;;;;;;;;4869440;29;20056;-71
2023/12/15 02:26:19;;;;;;;24.98;7.28;;;;;;;;;;4869291;29;20060;-71
2023/12/15 02:28:45;;;;;;;25.70;6.72;;;;;;;;;;4889917;29;20049;-70
2023/12/15 02:31:11;;;;;;;29.15;6.97;;;;;;;;;;4871500;29;20125;-69
2023/12/15 02:33:37;;;;;;;27.23;6.47;;;;;;;;;;4868297;29;20562;-70
2023/12/15 02:36:03;;;;;;;28.23;6.95;;;;;;;;;;4866788;29;20056;-71
2023/12/15 02:38:29;;;;;;;33.42;7.03;;;;;;;;;;4871191;29;20400;-71
2023/12/15 02:40:55;;;;;;;29.98;6.75;;;;;;;;;;4865841;29;20422;-70
2023/12/15 02:43:21;;;;;;;30.45;7.57;;;;;;;;;;4871769;29;20048;-71
2023/12/15 02:45:50;;;;;;;26.95;7.00;;;;;;;;;;4885595;29;20049;-71
2023/12/15 02:48:16;;;;;;;30.45;7.93;;;;;;;;;;4869015;29;20578;-71
2023/12/15 02:50:43;;;;;;;30.48;7.78;;;;;;;;;;4872791;29;20108;-70
2023/12/15 02:53:09;;;;;;;35.30;6.90;;;;;;;;;;4866647;29;20040;-70
2023/12/15 02:55:36;;;;;;;31.70;7.78;;;;;;;;;;4866947;29;20500;-70
2023/12/15 02:58:02;;;;;;;36.95;8.63;;;;;;;;;;4867387;29;20410;-70
2023/12/15 03:00:28;;;;;;;42.92;8.35;;;;;;;;;;4868390;29;20063;-70
2023/12/15 03:02:54;;;;;;;30.95;7.95;;;;;;;;;;4867432;29;20044;-70
2023/12/15 03:05:20;;;;;;;28.10;6.82;;;;;;;;;;4870686;29;20108;-71
2023/12/15 03:07:46;;;;;;;33.80;8.32;;;;;;;;;;4870708;29;20119;-70
2023/12/15 03:10:15;;;;;;;32.50;7.00;;;;;;;;;;4872796;29;20486;-70
2023/12/15 03:12:41;;;;;;;33.60;7.63;;;;;;;;;;4874319;29;20052;-70
2023/12/15 03:15:07;;;;;;;33.10;8.23;;;;;;;;;;4874188;29;20052;-70
2023/12/15 03:17:33;;;;;;;32.15;8.57;;;;;;;;;;4875256;29;20055;-70
2023/12/15 03:19:59;;;;;;;30.50;7.95;;;;;;;;;;4875561;29;20056;-70
2023/12/15 03:22:28;;;;;;;34.28;8.48;;;;;;;;;;4866670;29;20056;-70
2023/12/15 03:24:54;;;;;;;31.48;8.27;;;;;;;;;;4867215;29;20109;-70
2023/12/15 03:27:20;;;;;;;34.25;8.38;;;;;;;;;;4867166;29;20057;-70
2023/12/15 03:29:49;;;;;;;30.65;7.18;;;;;;;;;;4862519;29;20081;-70
2023/12/15 03:32:15;;;;;;;31.17;6.95;;;;;;;;;;4866450;29;20053;-70
2023/12/15 03:34:44;;;;;;;32.08;7.97;;;;;;;;;;4873769;29;20037;-70
2023/12/15 03:37:13;;;;;;;27.17;6.13;;;;;;;;;;4863130;29;20132;-71
2023/12/15 03:39:39;;;;;;;30.55;8.38;;;;;;;;;;4864323;29;20052;-71
2023/12/15 03:42:08;;;;;;;36.22;7.50;;;;;;;;;;4868916;29;20052;-70
2023/12/15 03:44:36;;;;;;;25.92;7.05;;;;;;;;;;4868558;29;20055;-70
2023/12/15 03:47:02;;;;;;;27.85;6.75;;;;;;;;;;4873842;29;20056;-71
2023/12/15 03:49:28;;;;;;;35.75;8.02;;;;;;;;;;4876236;29;20804;-71
2023/12/15 03:51:55;;;;;;;21.92;6.05;;;;;;;;;;4873793;29;20049;-70
2023/12/15 03:54:21;;;;;;;31.98;7.20;;;;;;;;;;4877551;29;20059;-70
2023/12/15 03:56:47;;;;;;;24.35;6.78;;;;;;;;;;4871198;29;20108;-71
2023/12/15 03:59:13;;;;;;;42.33;8.23;;;;;;;;;;4865749;29;20512;-70
2023/12/15 04:01:39;;;;;;;23.77;6.28;;;;;;;;;;4862097;29;20516;-71
2023/12/15 04:04:08;;;;;;;36.72;6.50;;;;;;;;;;4885614;29;20139;-71
2023/12/15 04:06:34;;;;;;;30.83;7.35;;;;;;;;;;4872979;29;20533;-70
2023/12/15 04:09:00;;;;;;;32.08;6.40;;;;;;;;;;4871403;29;20443;-70
2023/12/15 04:11:26;;;;;;;34.58;7.10;;;;;;;;;;4867701;29;20454;-71
2023/12/15 04:13:55;;;;;;;29.20;7.53;;;;;;;;;;4870156;29;20056;-70
2023/12/15 04:16:21;;;;;;;35.63;8.50;;;;;;;;;;4870305;29;20052;-70
2023/12/15 04:18:47;;;;;;;33.83;6.97;;;;;;;;;;4872219;29;20052;-70
2023/12/15 04:21:12;;;;;;;32.25;7.05;;;;;;;;;;4864457;29;20052;-70
2023/12/15 04:23:44;;;;;;;42.92;7.90;;;;;;;;;;4863277;29;20053;-70
2023/12/15 04:26:10;;;;;;;28.75;7.47;;;;;;;;;;4871335;29;20072;-70
2023/12/15 04:28:36;;;;;;;33.10;6.80;;;;;;;;;;4869693;29;20573;-70
2023/12/15 04:31:03;;;;;;;27.40;6.65;;;;;;;;;;4872710;29;20147;-71
2023/12/15 04:33:29;;;;;;;39.97;7.80;;;;;;;;;;4888549;29;20071;-70
2023/12/15 04:35:55;;;;;;;41.38;7.78;;;;;;;;;;4868123;29;20048;-70
2023/12/15 04:38:21;;;;;;;33.30;7.07;;;;;;;;;;4866537;29;20056;-70
2023/12/15 04:40:47;;;;;;;34.10;7.28;;;;;;;;;;4866633;29;20131;-70
2023/12/15 04:43:13;;;;;;;33.08;7.72;;;;;;;;;;4870752;29;20048;-70
2023/12/15 04:45:39;;;;;;;34.63;6.80;;;;;;;;;;4872570;29;20055;-70
2023/12/15 04:48:05;;;;;;;39.13;7.57;;;;;;;;;;4869261;29;20494;-70
2023/12/15 04:50:31;;;;;;;31.88;7.25;;;;;;;;;;4872103;29;20537;-71
2023/12/15 04:52:57;;;;;;;39.28;8.00;;;;;;;;;;4872774;29;20378;-70
2023/12/15 04:55:23;;;;;;;37.03;7.07;;;;;;;;;;4867939;29;20063;-71
2023/12/15 04:57:49;;;;;;;34.42;6.68;;;;;;;;;;4870130;29;20686;-70
2023/12/15 05:00:18;;;;;;;25.13;6.90;;;;;;;;;;4871295;29;20052;-70
2023/12/15 05:02:44;;;;;;;35.65;7.32;;;;;;;;;;4868340;29;20052;-70
2023/12/15 05:05:10;;;;;;;34.83;6.63;;;;;;;;;;4879905;29;20472;-70
2023/12/15 05:07:36;;;;;;;22.25;6.30;;;;;;;;;;4873778;29;20048;-70
2023/12/15 05:10:05;;;;;;;37.85;7.07;;;;;;;;;;4870447;29;20079;-70
2023/12/15 05:12:35;;;;;;;34.22;7.43;;;;;;;;;;4863913;29;20101;-70
2023/12/15 05:15:01;;;;;;;35.45;7.45;;;;;;;;;;4876180;29;20044;-71
2023/12/15 05:17:34;;;;;;;36.13;7.63;;;;;;;;;;4870177;29;20489;-70
2023/12/15 05:20:06;;;;;;;36.20;7.55;;;;;;;;;;4873248;29;20411;-71
2023/12/15 05:22:32;;;;;;;29.48;7.25;;;;;;;;;;4873474;29;20393;-70
2023/12/15 05:24:58;;;;;;;31.98;7.20;;;;;;;;;;4868881;29;20041;-70
2023/12/15 05:27:24;;;;;;;29.33;6.55;;;;;;;;;;4868871;29;20512;-70
2023/12/15 05:29:50;;;;;;;33.58;7.40;;;;;;;;;;4872357;29;20052;-70
2023/12/15 05:32:17;;;;;;;37.40;7.55;;;;;;;;;;4864545;29;20091;-71
2023/12/15 05:34:43;;;;;;;22.00;6.55;;;;;;;;;;4870143;29;20045;-70
2023/12/15 05:37:09;;;;;;;36.97;7.10;;;;;;;;;;4872155;29;20048;-71
2023/12/15 05:39:35;;;;;;;38.03;7.45;;;;;;;;;;4889408;29;20104;-70
2023/12/15 05:42:01;;;;;;;28.98;5.93;;;;;;;;;;4887922;29;20101;-70
2023/12/15 05:44:27;;;;;;;20.70;5.25;;;;;;;;;;4870579;29;20045;-70
2023/12/15 05:46:56;;;;;;;35.90;7.80;;;;;;;;;;4872012;29;20049;-70
2023/12/15 05:49:22;;;;;;;40.45;7.63;;;;;;;;;;4887703;29;20056;-70
2023/12/15 05:51:48;;;;;;;25.42;6.40;;;;;;;;;;4871195;29;20053;-70
2023/12/15 05:54:14;;;;;;;38.33;7.65;;;;;;;;;;4869557;29;20045;-70
2023/12/15 05:56:41;;;;;;;35.42;7.72;;;;;;;;;;4867927;29;20542;-70
2023/12/15 05:59:07;;;;;;;36.80;7.03;;;;;;;;;;4867684;29;20128;-70
2023/12/15 06:01:33;;;;;;;28.70;6.95;;;;;;;;;;4866858;29;20128;-71
2023/12/15 06:03:59;;;;;;;42.00;8.00;;;;;;;;;;4869528;29;20052;-70
2023/12/15 06:06:25;;;;;;;24.10;5.57;;;;;;;;;;4870955;29;20041;-71
2023/12/15 06:08:51;;;;;;;33.20;7.57;;;;;;;;;;4873289;29;20059;-70
2023/12/15 06:11:17;;;;;;;39.75;7.82;;;;;;;;;;4870121;29;20164;-70
2023/12/15 06:13:43;;;;;;;34.53;8.48;;;;;;;;;;4863009;29;20454;-70
2023/12/15 06:16:16;;;;;;;26.60;6.22;;;;;;;;;;4869313;29;20041;-70
2023/12/15 06:18:42;;;;;;;30.38;6.85;;;;;;;;;;4868806;29;20049;-70
2023/12/15 06:21:08;;;;;;;43.33;8.20;;;;;;;;;;4869938;29;20670;-70
2023/12/15 06:23:34;;;;;;;29.15;7.93;;;;;;;;;;4873284;29;20052;-70
2023/12/15 06:26:00;;;;;;;33.58;6.65;;;;;;;;;;4868222;29;20048;-70
2023/12/15 06:28:29;;;;;;;32.00;6.95;;;;;;;;;;4884711;29;20081;-70
2023/12/15 06:30:55;;;;;;;31.80;7.13;;;;;;;;;;4868231;29;20099;-70
2023/12/15 06:33:22;;;;;;;35.03;7.68;;;;;;;;;;4866631;29;20055;-70
2023/12/15 06:35:48;;;;;;;31.48;7.40;;;;;;;;;;4868587;29;20497;-71
2023/12/15 06:38:15;;;;;;;24.77;6.50;;;;;;;;;;4864878;29;20406;-70
2023/12/15 06:40:41;;;;;;;28.73;7.10;;;;;;;;;;4860143;29;20057;-70
2023/12/15 06:43:07;;;;;;;40.30;8.82;;;;;;;;;;4871062;29;20375;-70
2023/12/15 06:45:33;;;;;;;34.85;7.70;;;;;;;;;;4869889;29;20045;-70
2023/12/15 06:48:02;;;;;;;35.65;6.97;;;;;;;;;;4869679;29;20086;-70
2023/12/15 06:50:28;;;;;;;33.13;6.53;;;;;;;;;;4871195;29;20081;-70
2023/12/15 06:52:54;;;;;;;35.13;7.15;;;;;;;;;;4868492;29;20041;-70
2023/12/15 06:55:20;;;;;;;33.83;7.95;;;;;;;;;;4876006;29;20064;-70
2023/12/15 06:57:46;;;;;;;33.85;9.10;;;;;;;;;;4874840;29;20509;-70
2023/12/15 07:00:12;;;;;;;28.38;8.38;;;;;;;;;;4870043;29;20051;-70
2023/12/15 07:02:44;;;;;;;35.78;6.97;;;;;;;;;;4871705;29;20084;-70
2023/12/15 07:05:13;;;;;;;25.02;5.78;;;;;;;;;;4870004;29;20082;-70
2023/12/15 07:07:39;;;;;;;31.83;7.38;;;;;;;;;;4867199;29;20045;-71
2023/12/15 07:10:06;;;;;;;27.17;7.22;;;;;;;;;;4866713;29;20060;-70
2023/12/15 07:12:32;;;;;;;44.70;6.85;;;;;;;;;;4869277;29;20486;-70
2023/12/15 07:14:58;;;;;;;33.08;8.10;;;;;;;;;;4865935;29;20049;-70
2023/12/15 07:17:30;;;;;;;39.40;7.55;;;;;;;;;;4866730;29;20320;-70
2023/12/15 07:19:56;;;;;;;32.67;7.82;;;;;;;;;;4864596;29;20053;-71
2023/12/15 07:22:25;;;;;;;43.10;7.57;;;;;;;;;;4868960;29;20053;-71
2023/12/15 07:24:51;;;;;;;33.08;7.20;;;;;;;;;;4875637;29;20549;-71
2023/12/15 07:27:17;;;;;;;36.38;8.07;;;;;;;;;;4868066;29;20053;-71
2023/12/15 07:29:43;;;;;;;33.78;7.15;;;;;;;;;;4859250;29;20137;-71
2023/12/15 07:32:09;;;;;;;20.42;7.00;;;;;;;;;;4860041;29;20081;-71
2023/12/15 07:34:38;;;;;;;34.75;8.52;;;;;;;;;;4871917;29;20044;-71
2023/12/15 07:37:04;;;;;;;33.15;7.47;;;;;;;;;;4869465;29;20088;-71
2023/12/15 07:39:30;;;;;;;30.50;7.22;;;;;;;;;;4867593;29;20053;-71
2023/12/15 07:41:56;;;;;;;34.42;7.10;;;;;;;;;;4863819;29;20053;-70
2023/12/15 07:44:22;;;;;;;33.40;7.45;;;;;;;;;;4861114;29;20084;-70
2023/12/15 07:46:48;;;;;;;31.45;6.72;;;;;;;;;;4863135;29;20056;-70
2023/12/15 07:49:14;;;;;;;37.15;8.15;;;;;;;;;;4862397;29;20052;-70
2023/12/15 07:51:40;;;;;;;32.28;7.78;;;;;;;;;;4866187;29;20667;-70
2023/12/15 07:54:06;;;;;;;33.67;7.75;;;;;;;;;;4864862;29;20474;-70
2023/12/15 07:56:33;;;;;;;32.70;7.28;;;;;;;;;;4861337;29;20052;-69
2023/12/15 07:59:02;;;;;;;37.13;7.85;;;;;;;;;;4864565;29;20332;-70
2023/12/15 08:01:28;;;;;;;46.17;8.63;;;;;;;;;;4860851;29;20124;-70
2023/12/15 08:03:54;;;;;;;42.80;7.28;;;;;;;;;;4865647;29;20073;-70
2023/12/15 08:06:20;;;;;;;34.50;7.13;;;;;;;;;;4865933;29;20068;-70
2023/12/15 08:08:47;;;;;;;40.13;9.45;;;;;;;;;;4869784;29;20100;-70
2023/12/15 08:11:14;;;;;;;35.53;7.93;;;;;;;;;;4894976;29;20170;-70
2023/12/15 08:13:41;;;;;;;32.25;6.82;;;;;;;;;;4878285;29;20052;-70
2023/12/15 08:16:07;;;;;;;35.40;7.70;;;;;;;;;;4873765;29;20053;-70
2023/12/15 08:18:33;;;;;;;35.28;7.97;;;;;;;;;;4875313;29;20063;-70
2023/12/15 08:21:00;;;;;;;32.03;7.25;;;;;;;;;;4867809;29;20056;-70
2023/12/15 08:23:26;;;;;;;35.33;8.85;;;;;;;;;;4876790;29;20181;-69
2023/12/15 08:25:52;;;;;;;42.10;7.90;;;;;;;;;;4874289;29;20049;-70
2023/12/15 08:28:20;;;;;;;42.90;8.75;;;;;;;;;;4859031;29;20060;-70
2023/12/15 08:30:50;;;;;;;44.65;8.93;;;;;;;;;;4875564;29;20052;-69
2023/12/15 08:33:16;;;;;;;42.83;8.85;;;;;;;;;;4874571;29;20486;-70
2023/12/15 08:35:42;;;;;;;42.22;8.15;;;;;;;;;;4865102;29;20052;-70
2023/12/15 08:38:09;;;;;;;34.28;7.88;;;;;;;;;;4873866;29;20049;-70
2023/12/15 08:40:41;;;;;;;27.45;7.32;;;;;;;;;;4868799;29;20144;-70
2023/12/15 08:43:07;;;;;;;35.40;7.85;;;;;;;;;;4871802;29;20154;-70
2023/12/15 08:45:33;;;;;;;39.45;7.80;;;;;;;;;;4867943;29;20139;-69
2023/12/15 08:47:59;;;;;;;41.47;7.97;;;;;;;;;;4869327;29;20053;-70
2023/12/15 08:50:28;;;;;;;37.35;8.98;;;;;;;;;;4872472;29;20053;-69
2023/12/15 08:52:55;;;;;;;36.72;7.97;;;;;;;;;;4868540;29;20081;-70
2023/12/15 08:55:21;;;;;;;35.35;8.13;;;;;;;;;;4870164;29;20056;-70
2023/12/15 08:57:47;;;;;;;44.25;7.72;;;;;;;;;;4873109;29;20374;-70
2023/12/15 09:00:13;;;;;;;47.92;8.27;;;;;;;;;;4865882;29;20053;-70
2023/12/15 09:02:39;;;;;;;41.08;9.82;;;;;;;;;;4860565;29;20537;-70
2023/12/15 09:05:05;;;;;;;38.75;8.57;;;;;;;;;;4858377;29;20514;-70
2023/12/15 09:07:31;;;;;;;43.15;7.82;;;;;;;;;;4865398;29;20050;-70
2023/12/15 09:09:57;;;;;;;32.08;8.60;;;;;;;;;;4872258;29;20808;-69
2023/12/15 09:12:23;;;;;;;44.60;10.45;;;;;;;;;;4871098;29;20061;-70
2023/12/15 09:14:50;;;;;;;32.78;8.05;;;;;;;;;;4858017;29;20053;-70
2023/12/15 09:17:16;;;;;;;38.15;8.02;;;;;;;;;;4865709;29;20077;-70
2023/12/15 09:19:47;;;;;;;38.80;8.13;;;;;;;;;;4866251;29;20084;-70
2023/12/15 09:22:13;;;;;;;35.53;7.72;;;;;;;;;;4841078;29;20053;-70
2023/12/15 09:24:39;;;;;;;35.75;7.47;;;;;;;;;;4870786;29;20055;-70
2023/12/15 09:27:05;;;;;;;38.83;8.40;;;;;;;;;;4873107;29;20509;-70
2023/12/15 09:29:34;;;;;;;40.22;8.25;;;;;;;;;;4877258;29;20045;-70
2023/12/15 09:32:00;;;;;;;40.75;7.57;;;;;;;;;;4879930;29;20060;-70
2023/12/15 09:34:27;;;;;;;33.05;7.63;;;;;;;;;;4864939;29;20109;-70
2023/12/15 09:36:53;;;;;;;32.72;7.32;;;;;;;;;;4875504;29;20462;-70
2023/12/15 09:39:22;;;;;;;35.53;7.55;;;;;;;;;;4867674;29;20057;-70
2023/12/15 09:41:51;;;;;;;33.72;8.02;;;;;;;;;;4873527;29;20056;-70
2023/12/15 09:44:18;;;;;;;36.13;8.15;;;;;;;;;;4875807;29;20053;-70
2023/12/15 09:46:45;;;;;;;35.47;7.13;;;;;;;;;;4873195;29;20124;-70
2023/12/15 09:49:13;;;;;;;33.72;8.65;;;;;;;;;;4864319;29;20045;-70
2023/12/15 09:51:40;;;;;;;29.13;7.90;;;;;;;;;;4870007;29;20140;-70
2023/12/15 09:54:06;;;;;;;24.55;5.93;;;;;;;;;;4868480;29;20052;-70
2023/12/15 09:56:33;;;;;;;30.88;8.73;;;;;;;;;;4874300;29;20127;-70
2023/12/15 09:58:59;;;;;;;32.85;8.05;;;;;;;;;;4876913;29;20513;-70
2023/12/15 10:01:25;;;;;;;40.35;8.68;;;;;;;;;;4871205;29;20061;-69
2023/12/15 10:03:53;;;;;;;35.63;8.43;;;;;;;;;;4873718;29;20045;-70
2023/12/15 10:06:19;;;;;;;36.63;8.68;;;;;;;;;;4875813;29;20053;-70
2023/12/15 10:08:46;;;;;;;30.30;7.22;;;;;;;;;;4872162;29;20049;-70
2023/12/15 10:11:12;;;;;;;41.72;8.90;;;;;;;;;;4872776;29;20402;-70
2023/12/15 10:13:41;;;;;;;39.72;8.18;;;;;;;;;;4870270;29;20413;-70
2023/12/15 10:16:09;;;;;;;30.85;6.85;;;;;;;;;;4874995;29;20052;-70
2023/12/15 10:18:35;;;;;;;35.83;7.93;;;;;;;;;;4860535;29;20072;-71
2023/12/15 10:21:05;;;;;;;36.50;8.75;;;;;;;;;;4879761;29;20076;-70
2023/12/15 10:23:31;;;;;;;34.55;8.65;;;;;;;;;;4868391;29;20350;-69
2023/12/15 10:26:04;;;;;;;29.08;7.22;;;;;;;;;;4868912;29;20055;-70
2023/12/15 10:28:40;;;;;;;43.85;8.93;;;;;;;;;;4864379;29;20069;-70
2023/12/15 10:31:06;;;;;;;35.63;7.70;;;;;;;;;;4876923;29;20060;-70
2023/12/15 10:33:33;;;;;;;37.10;8.80;;;;;;;;;;4874094;29;20083;-70
2023/12/15 10:36:00;;;;;;;35.97;8.43;;;;;;;;;;4868681;29;20053;-69
2023/12/15 10:38:28;;;;;;;28.77;7.13;;;;;;;;;;4868601;29;20056;-70
2023/12/15 10:40:54;;;;;;;29.52;6.85;;;;;;;;;;4871503;29;20052;-70
2023/12/15 10:43:21;;;;;;;40.97;8.32;;;;;;;;;;4863180;29;20063;-70
2023/12/15 10:45:47;;;;;;;40.20;7.82;;;;;;;;;;4869481;29;20144;-70
2023/12/15 10:48:16;;;;;;;39.22;8.88;;;;;;;;;;4875962;29;20128;-70
2023/12/15 10:50:43;;;;;;;36.13;8.10;;;;;;;;;;4866357;29;20045;-70
2023/12/15 10:53:15;;;;;;;36.05;7.20;;;;;;;;;;4870158;29;20041;-70
2023/12/15 10:55:46;;;;;;;34.00;7.70;;;;;;;;;;4877475;29;20052;-70
2023/12/15 10:58:12;;;;;;;40.92;8.38;;;;;;;;;;4876307;29;20306;-70
2023/12/15 11:00:39;;;;;;;34.92;8.15;;;;;;;;;;4865817;29;20413;-70
2023/12/15 11:03:10;;;;;;;37.38;8.75;;;;;;;;;;4866993;29;20045;-70
2023/12/15 11:05:39;;;;;;;27.45;7.60;;;;;;;;;;4871794;29;20045;-70
2023/12/15 11:08:06;;;;;;;31.25;7.65;;;;;;;;;;4866327;29;20061;-70
2023/12/15 11:10:32;;;;;;;31.67;8.27;;;;;;;;;;4868831;29;20472;-69
2023/12/15 11:12:58;;;;;;;37.17;7.93;;;;;;;;;;4860695;29;20041;-70
2023/12/15 11:15:26;;;;;;;31.00;7.50;;;;;;;;;;4860648;29;20045;-70
2023/12/15 11:17:57;;;;;;;32.58;8.60;;;;;;;;;;4873305;29;20045;-70
2023/12/15 11:20:27;;;;;;;35.40;7.57;;;;;;;;;;4870840;29;20418;-70
2023/12/15 11:22:53;;;;;;;28.10;8.02;;;;;;;;;;4862111;29;20085;-70
2023/12/15 11:25:27;;;;;;;36.05;8.15;;;;;;;;;;4872680;29;20653;-70
2023/12/15 11:27:59;;;;;;;30.40;9.15;;;;;;;;;;4872996;29;20092;-70
2023/12/15 11:30:37;;;;;;;30.17;8.37;;;;;;;;;;4879147;29;20045;-70
2023/12/15 11:33:22;;;;;;;31.65;7.13;;;;;;;;;;4862120;29;20109;-70
2023/12/15 11:35:58;;;;;;;30.58;8.88;;;;;;;;;;4873625;29;20481;-70
2023/12/15 11:38:24;;;;;;;31.10;9.02;;;;;;;;;;4861647;29;20057;-70
2023/12/15 11:40:54;;;;;;;32.58;7.45;;;;;;;;;;4872805;29;20379;-70
2023/12/15 11:43:20;;;;;;;30.20;7.55;;;;;;;;;;4866220;29;20061;-70
2023/12/15 11:45:48;;;;;;;40.33;7.55;;;;;;;;;;4866010;29;20158;-70
2023/12/15 11:48:14;;;;;;;34.05;7.68;;;;;;;;;;4867704;29;20053;-70
2023/12/15 11:50:44;;;;;;;28.63;7.32;;;;;;;;;;4867127;29;20049;-70
2023/12/15 11:53:10;;;;;;;29.48;6.75;;;;;;;;;;4870401;29;20170;-70
2023/12/15 11:55:38;;;;;;;31.05;7.05;;;;;;;;;;4867529;29;20044;-70
2023/12/15 11:58:07;;;;;;;27.52;7.05;;;;;;;;;;4866197;29;20370;-70
2023/12/15 12:00:33;;;;;;;36.20;8.27;;;;;;;;;;4863004;29;20053;-70
2023/12/15 12:03:05;;;;;;;30.30;8.30;;;;;;;;;;4859175;29;20045;-70
2023/12/15 12:05:34;;;;;;;35.05;7.78;;;;;;;;;;4865724;29;20048;-70
2023/12/15 12:08:01;;;;;;;30.00;7.88;;;;;;;;;;4873014;29;20140;-70
2023/12/15 12:10:31;;;;;;;36.13;7.50;;;;;;;;;;4865278;29;20675;-70
2023/12/15 12:12:57;;;;;;;31.48;7.47;;;;;;;;;;4870551;29;20052;-70
2023/12/15 12:15:23;;;;;;;29.00;7.35;;;;;;;;;;4860240;29;20093;-70
2023/12/15 12:17:49;;;;;;;34.50;7.38;;;;;;;;;;4865512;29;20750;-70
2023/12/15 12:20:15;;;;;;;33.55;7.10;;;;;;;;;;4866537;29;20049;-69
2023/12/15 12:22:42;;;;;;;28.23;6.70;;;;;;;;;;4860454;29;20109;-70
2023/12/15 12:25:10;;;;;;;21.05;6.60;;;;;;;;;;4861524;29;20045;-70
2023/12/15 12:27:37;;;;;;;32.03;7.05;;;;;;;;;;4859871;29;20093;-70
2023/12/15 12:30:03;;;;;;;32.67;7.30;;;;;;;;;;4859871;29;20045;-70
2023/12/15 12:32:30;;;;;;;31.58;7.45;;;;;;;;;;4864181;29;20049;-70
2023/12/15 12:34:57;;;;;;;23.23;6.50;;;;;;;;;;4868957;29;20061;-70
2023/12/15 12:37:23;;;;;;;25.92;6.93;;;;;;;;;;4869117;29;20068;-70
2023/12/15 12:39:49;;;;;;;24.15;6.45;;;;;;;;;;4860941;29;20057;-69
2023/12/15 12:42:15;;;;;;;26.25;6.80;;;;;;;;;;4875836;29;20063;-70
2023/12/15 12:44:42;;;;;;;25.70;6.72;;;;;;;;;;4868911;29;20074;-70
2023/12/15 12:47:08;;;;;;;27.92;6.82;;;;;;;;;;4857203;29;20045;-70
2023/12/15 12:49:34;;;;;;;23.27;6.65;;;;;;;;;;4861319;29;20129;-70
2023/12/15 12:52:00;;;;;;;20.40;6.25;;;;;;;;;;4877554;29;20591;-70
2023/12/15 12:54:26;;;;;;;19.75;6.07;;;;;;;;;;4875779;29;20056;-69
2023/12/15 12:56:57;;;;;;;26.95;6.20;;;;;;;;;;4868873;29;20053;-70
2023/12/15 12:59:23;;;;;;;25.88;7.68;;;;;;;;;;4868853;29;20069;-70
2023/12/15 13:01:49;;;;;;;22.27;7.40;;;;;;;;;;4866314;29;20050;-70
2023/12/15 13:04:15;;;;;;;20.88;6.45;;;;;;;;;;4863108;29;20045;-70
2023/12/15 13:06:43;;;;;;;22.83;6.25;;;;;;;;;;4869871;29;20064;-70
2023/12/15 13:09:09;;;;;;;23.05;5.38;;;;;;;;;;4854217;29;20057;-70
2023/12/15 13:11:35;;;;;;;13.55;5.25;;;;;;;;;;4873195;29;20132;-71
2023/12/15 13:14:03;;;;;;;25.85;6.55;;;;;;;;;;4865366;29;20041;-71
2023/12/15 13:16:29;;;;;;;21.00;5.30;;;;;;;;;;4871189;29;20281;-71
2023/12/15 13:18:55;;;;;;;19.30;5.65;;;;;;;;;;4864213;29;20077;-71
2023/12/15 13:21:21;;;;;;;18.65;4.53;;;;;;;;;;4863670;29;20091;-71
2023/12/15 13:23:47;;;;;;;22.00;5.32;;;;;;;;;;4868950;29;20059;-71
2023/12/15 13:26:16;;;;;;;19.30;5.93;;;;;;;;;;4870051;29;20046;-71
2023/12/15 13:28:42;;;;;;;22.20;6.03;;;;;;;;;;4860262;29;20054;-70
2023/12/15 13:31:08;;;;;;;23.00;6.35;;;;;;;;;;4876558;29;20047;-71
2023/12/15 13:33:34;;;;;;;19.88;6.22;;;;;;;;;;4878091;29;20439;-71
2023/12/15 13:36:00;;;;;;;22.52;5.80;;;;;;;;;;4880123;29;20090;-71
2023/12/15 13:38:27;;;;;;;26.00;5.97;;;;;;;;;;4874629;29;20058;-71
2023/12/15 13:40:53;;;;;;;18.17;5.32;;;;;;;;;;4870237;29;20132;-71
2023/12/15 13:43:19;;;;;;;18.90;5.45;;;;;;;;;;4868038;29;20056;-71
2023/12/15 13:45:45;;;;;;;24.17;5.65;;;;;;;;;;4865309;29;20050;-71
2023/12/15 13:48:14;;;;;;;21.30;6.32;;;;;;;;;;4872752;29;20044;-71
2023/12/15 13:50:40;;;;;;;21.27;5.53;;;;;;;;;;4865395;29;20045;-71
2023/12/15 13:53:09;;;;;;;21.27;5.90;;;;;;;;;;4870133;29;20490;-71
2023/12/15 13:55:38;;;;;;;20.40;5.50;;;;;;;;;;4863257;29;20050;-71
2023/12/15 13:58:05;;;;;;;19.70;5.13;;;;;;;;;;4866227;29;20053;-71
2023/12/15 14:00:31;;;;;;;26.45;6.20;;;;;;;;;;4883343;29;20124;-71
2023/12/15 14:02:57;;;;;;;22.50;5.85;;;;;;;;;;4865153;29;20056;-71
2023/12/15 14:05:23;;;;;;;21.67;6.20;;;;;;;;;;4866926;29;20041;-71
2023/12/15 14:07:49;;;;;;;18.67;4.90;;;;;;;;;;4867412;29;20116;-71
2023/12/15 14:10:15;;;;;;;20.48;5.60;;;;;;;;;;4869910;29;20371;-71
2023/12/15 14:12:41;;;;;;;23.17;5.75;;;;;;;;;;4861693;29;20121;-70
2023/12/15 14:15:08;;;;;;;17.70;5.22;;;;;;;;;;4865966;29;20049;-71
2023/12/15 14:17:34;;;;;;;19.75;4.97;;;;;;;;;;4865047;29;20041;-71
2023/12/15 14:20:00;;;;;;;18.02;4.93;;;;;;;;;;4866323;29;20129;-71
2023/12/15 14:22:26;;;;;;;19.20;5.40;;;;;;;;;;4865969;29;20061;-71
2023/12/15 14:24:52;;;;;;;23.15;5.88;;;;;;;;;;4861860;29;20050;-71
2023/12/15 14:27:18;;;;;;;17.58;5.43;;;;;;;;;;4862222;29;20037;-71